createdAt,value
2023-05-09T00:01:52.746Z,4.30
2023-05-09T00:04:21.101Z,7.40
2023-05-09T00:06:49.041Z,5.60
2023-05-09T00:09:17.626Z,6.95
2023-05-09T00:11:45.363Z,7.43
2023-05-09T00:14:14.043Z,5.93
2023-05-09T00:16:41.882Z,7.63
2023-05-09T00:19:10.076Z,6.85
2023-05-09T00:21:38.054Z,5.65
2023-05-09T00:24:06.458Z,5.70
2023-05-09T00:26:34.306Z,7.20
2023-05-09T00:29:02.154Z,7.15
2023-05-09T00:31:29.943Z,4.85
2023-05-09T00:33:57.737Z,5.97
2023-05-09T00:36:25.995Z,7.10
2023-05-09T00:38:53.869Z,6.97
2023-05-09T00:41:24.596Z,5.53
2023-05-09T00:43:52.441Z,5.95
2023-05-09T00:46:20.299Z,9.68
2023-05-09T00:48:48.433Z,5.45
2023-05-09T00:51:17.239Z,5.47
2023-05-09T00:53:47.972Z,6.90
2023-05-09T00:56:16.066Z,8.07
2023-05-09T00:58:44.361Z,4.53
2023-05-09T01:01:12.365Z,5.57
2023-05-09T01:03:41.856Z,5.35
2023-05-09T01:06:12.951Z,4.35
2023-05-09T01:08:51.435Z,6.68
2023-05-09T01:11:44.812Z,7.35
2023-05-09T01:14:39.931Z,5.18
2023-05-09T01:17:18.538Z,7.65
2023-05-09T01:20:05.817Z,5.30
2023-05-09T01:22:37.348Z,6.88
2023-05-09T01:25:14.154Z,5.72
2023-05-09T01:27:53.808Z,6.75
2023-05-09T01:30:22.408Z,8.27
2023-05-09T01:32:52.319Z,6.63
2023-05-09T01:35:26.055Z,6.55
2023-05-09T01:37:55.568Z,7.18
2023-05-09T01:40:26.751Z,5.85
2023-05-09T01:43:04.222Z,7.38
2023-05-09T01:45:33.348Z,4.25
2023-05-09T01:48:02.302Z,6.22
2023-05-09T01:50:31.471Z,7.40
2023-05-09T01:53:01.618Z,6.38
2023-05-09T01:55:32.898Z,9.13
2023-05-09T01:58:03.259Z,7.30
2023-05-09T02:00:33.665Z,5.57
2023-05-09T02:03:04.202Z,7.53
2023-05-09T02:05:33.853Z,6.65
2023-05-09T02:08:01.647Z,8.13
2023-05-09T02:10:30.050Z,7.35
2023-05-09T02:12:58.752Z,7.57
2023-05-09T02:15:26.875Z,6.78
2023-05-09T02:17:54.699Z,6.07
2023-05-09T02:20:22.721Z,7.20
2023-05-09T02:22:51.283Z,5.15
2023-05-09T02:25:20.216Z,5.35
2023-05-09T02:27:48.045Z,7.30
2023-05-09T02:30:23.566Z,8.80
2023-05-09T02:32:57.162Z,8.75
2023-05-09T02:35:27.564Z,7.68
2023-05-09T02:37:57.117Z,8.57
2023-05-09T02:40:30.448Z,6.63
2023-05-09T02:42:58.259Z,6.70
2023-05-09T02:45:26.288Z,5.85
2023-05-09T02:47:54.241Z,5.78
2023-05-09T02:50:24.118Z,8.18
2023-05-09T02:52:52.237Z,5.53
2023-05-09T02:55:20.028Z,5.75
2023-05-09T02:57:47.911Z,4.82
2023-05-09T03:00:18.198Z,6.50
2023-05-09T03:02:46.153Z,7.63
2023-05-09T03:05:18.065Z,5.95
2023-05-09T03:07:46.162Z,4.40
2023-05-09T03:10:14.829Z,7.22
2023-05-09T03:12:43.959Z,4.95
2023-05-09T03:15:13.242Z,5.45
2023-05-09T03:17:42.424Z,5.75
2023-05-09T03:20:10.754Z,7.85
2023-05-09T03:22:38.685Z,10.23
2023-05-09T03:25:09.773Z,7.55
2023-05-09T03:27:37.618Z,9.32
2023-05-09T03:30:09.032Z,8.45
2023-05-09T03:32:37.371Z,9.60
2023-05-09T03:35:05.392Z,7.80
2023-05-09T03:37:33.722Z,7.28
2023-05-09T03:40:01.676Z,7.80
2023-05-09T03:42:32.765Z,7.22
2023-05-09T03:45:02.938Z,7.25
2023-05-09T03:47:31.799Z,8.88
2023-05-09T03:49:59.699Z,6.00
2023-05-09T03:52:27.532Z,8.13
2023-05-09T03:54:56.034Z,7.55
2023-05-09T03:57:23.862Z,6.65
2023-05-09T03:59:53.966Z,6.07
2023-05-09T04:02:23.338Z,5.80
2023-05-09T04:04:52.964Z,5.47
2023-05-09T04:07:22.736Z,8.00
2023-05-09T04:09:50.814Z,6.03
2023-05-09T04:12:18.645Z,6.07
2023-05-09T04:14:48.930Z,6.60
2023-05-09T04:17:18.331Z,4.95
2023-05-09T04:19:46.569Z,6.80
2023-05-09T04:22:14.481Z,7.90
2023-05-09T04:24:42.692Z,10.93
2023-05-09T04:27:10.480Z,7.43
2023-05-09T04:29:39.085Z,6.82
2023-05-09T04:32:07.418Z,6.70
2023-05-09T04:34:36.096Z,4.93
2023-05-09T04:37:10.155Z,6.07
2023-05-09T04:39:38.287Z,8.75
2023-05-09T04:42:14.694Z,5.22
2023-05-09T04:44:42.556Z,6.95
2023-05-09T04:47:10.625Z,7.22
2023-05-09T04:49:38.777Z,7.30
2023-05-09T04:52:07.197Z,5.43
2023-05-09T04:54:35.119Z,5.00
2023-05-09T04:57:16.505Z,6.50
2023-05-09T04:59:47.281Z,7.15
2023-05-09T05:02:16.367Z,6.00
2023-05-09T05:04:44.441Z,7.18
2023-05-09T05:07:12.566Z,4.85
2023-05-09T05:09:40.458Z,6.35
2023-05-09T05:12:09.827Z,6.20
2023-05-09T05:14:38.981Z,5.65
2023-05-09T05:17:09.388Z,7.15
2023-05-09T05:19:37.428Z,5.30
2023-05-09T05:22:07.312Z,6.53
2023-05-09T05:24:38.009Z,7.72
2023-05-09T05:27:05.803Z,6.28
2023-05-09T05:29:33.657Z,6.80
2023-05-09T05:32:01.770Z,8.13
2023-05-09T05:34:29.535Z,4.75
2023-05-09T05:36:57.433Z,7.00
2023-05-09T05:39:25.454Z,7.82
2023-05-09T05:41:54.185Z,5.88
2023-05-09T05:44:22.150Z,5.65
2023-05-09T05:46:50.481Z,6.20
2023-05-09T05:49:18.590Z,7.68
2023-05-09T05:51:46.728Z,6.28
2023-05-09T05:54:14.749Z,7.80
2023-05-09T05:56:42.943Z,7.18
2023-05-09T05:59:13.330Z,8.88
2023-05-09T06:01:41.841Z,7.25
2023-05-09T06:04:10.255Z,8.93
2023-05-09T06:06:38.769Z,6.03
2023-05-09T06:09:06.516Z,10.13
2023-05-09T06:11:34.310Z,7.65
2023-05-09T06:14:02.178Z,7.70
2023-05-09T06:16:30.408Z,11.13
2023-05-09T06:18:58.288Z,8.60
2023-05-09T06:21:27.017Z,8.60
2023-05-09T06:24:05.866Z,7.70
2023-05-09T06:26:36.881Z,7.45
2023-05-09T06:29:06.713Z,6.80
2023-05-09T06:31:39.129Z,7.20
2023-05-09T06:34:07.759Z,12.25
2023-05-09T06:36:35.882Z,8.50
2023-05-09T06:39:03.878Z,10.73
2023-05-09T06:41:31.808Z,7.18
2023-05-09T06:43:59.840Z,9.75
2023-05-09T06:46:27.645Z,10.15
2023-05-09T06:48:55.539Z,9.48
2023-05-09T06:51:23.417Z,9.13
2023-05-09T06:53:51.473Z,11.15
2023-05-09T06:56:26.577Z,11.95
2023-05-09T06:58:54.518Z,10.73
2023-05-09T07:01:22.563Z,13.57
2023-05-09T07:03:50.344Z,7.40
2023-05-09T07:06:23.525Z,24.35
2023-05-09T07:08:51.426Z,17.92
2023-05-09T07:11:19.517Z,20.65
2023-05-09T07:13:50.213Z,28.42
2023-05-09T07:16:23.237Z,21.33
2023-05-09T07:18:53.702Z,18.40
2023-05-09T07:21:23.281Z,19.15
2023-05-09T07:23:51.258Z,14.73
2023-05-09T07:26:21.704Z,20.60
2023-05-09T07:28:52.042Z,21.38
2023-05-09T07:31:22.877Z,17.17
2023-05-09T07:33:50.813Z,24.65
2023-05-09T07:36:18.839Z,17.45
2023-05-09T07:38:48.222Z,20.27
2023-05-09T07:41:16.653Z,29.13
2023-05-09T07:43:44.743Z,19.95
2023-05-09T07:46:12.794Z,17.02
2023-05-09T07:48:40.714Z,16.35
2023-05-09T07:51:08.910Z,19.42
2023-05-09T07:53:37.054Z,44.75
2023-05-09T07:56:08.280Z,52.85
2023-05-09T07:58:36.134Z,39.22
2023-05-09T08:01:08.568Z,37.60
2023-05-09T08:03:36.534Z,25.40
2023-05-09T08:06:04.401Z,30.98
2023-05-09T08:08:32.344Z,26.60
2023-05-09T08:11:01.072Z,22.73
2023-05-09T08:13:28.995Z,24.15
2023-05-09T08:15:57.437Z,19.80
2023-05-09T08:18:25.648Z,20.45
2023-05-09T08:20:53.608Z,16.08
2023-05-09T08:23:21.727Z,12.68
2023-05-09T08:25:53.404Z,14.65
2023-05-09T08:28:24.434Z,17.77
2023-05-09T08:30:52.659Z,19.10
2023-05-09T08:33:20.594Z,18.20
2023-05-09T08:35:55.184Z,19.02
2023-05-09T08:38:24.527Z,24.50
2023-05-09T08:40:54.314Z,16.17
2023-05-09T08:43:24.101Z,11.15
2023-05-09T08:45:55.226Z,10.60
2023-05-09T08:48:28.270Z,11.13
2023-05-09T08:50:59.703Z,13.20
2023-05-09T08:53:28.187Z,11.98
2023-05-09T08:55:56.679Z,9.15
2023-05-09T08:58:24.667Z,8.90
2023-05-09T09:00:53.764Z,9.95
2023-05-09T09:03:21.899Z,16.13
2023-05-09T09:05:51.881Z,15.52
2023-05-09T09:08:20.828Z,9.05
2023-05-09T09:10:49.212Z,13.63
2023-05-09T09:13:18.210Z,18.95
2023-05-09T09:15:47.401Z,14.10
2023-05-09T09:18:24.019Z,12.82
2023-05-09T09:20:57.816Z,10.02
2023-05-09T09:23:27.462Z,9.65
2023-05-09T09:26:00.485Z,7.40
2023-05-09T09:28:28.641Z,7.35
2023-05-09T09:30:56.935Z,5.72
2023-05-09T09:33:26.845Z,5.35
2023-05-09T09:35:56.301Z,8.13
2023-05-09T09:38:25.242Z,3.75
2023-05-09T09:40:55.057Z,5.57
2023-05-09T09:43:32.759Z,8.38
2023-05-09T09:46:04.741Z,10.35
2023-05-09T09:48:36.668Z,11.15
2023-05-09T09:51:11.923Z,9.77
2023-05-09T09:53:44.152Z,8.93
2023-05-09T09:56:12.297Z,9.20
2023-05-09T09:58:40.241Z,7.32
2023-05-09T10:01:10.052Z,8.10
2023-05-09T10:03:39.323Z,7.45
2023-05-09T10:06:12.208Z,10.40
2023-05-09T10:08:41.047Z,7.18
2023-05-09T10:11:10.414Z,5.82
2023-05-09T10:13:38.907Z,7.03
2023-05-09T10:16:09.165Z,8.57
2023-05-09T10:18:40.000Z,7.65
2023-05-09T10:21:12.330Z,7.95
2023-05-09T10:23:47.162Z,5.05
2023-05-09T10:26:20.090Z,6.50
2023-05-09T10:28:50.008Z,8.73
2023-05-09T10:31:39.425Z,7.28
2023-05-09T10:34:10.742Z,5.93
2023-05-09T10:36:38.595Z,5.78
2023-05-09T10:39:06.865Z,4.97
2023-05-09T10:41:37.312Z,6.53
2023-05-09T10:44:06.562Z,5.63
2023-05-09T10:46:36.188Z,6.43
2023-05-09T10:49:04.269Z,7.53
2023-05-09T10:51:33.193Z,6.60
2023-05-09T10:54:01.738Z,6.25
2023-05-09T10:56:35.978Z,5.15
2023-05-09T10:59:04.285Z,4.40
2023-05-09T11:01:37.724Z,6.63
2023-05-09T11:04:11.688Z,4.05
2023-05-09T11:06:51.962Z,4.78
2023-05-09T11:09:25.351Z,5.20
2023-05-09T11:11:58.000Z,5.07
2023-05-09T11:14:53.911Z,3.65
2023-05-09T11:17:22.242Z,4.93
2023-05-09T11:19:50.295Z,7.53
2023-05-09T11:22:22.047Z,6.18
2023-05-09T11:25:00.411Z,9.13
2023-05-09T11:27:29.394Z,5.70
2023-05-09T11:29:59.560Z,5.70
2023-05-09T11:32:53.845Z,7.38
2023-05-09T11:35:23.386Z,5.68
2023-05-09T11:38:07.058Z,6.55
2023-05-09T11:40:35.576Z,4.13
2023-05-09T11:43:03.781Z,3.80
2023-05-09T11:45:33.478Z,6.53
2023-05-09T11:48:02.418Z,5.68
2023-05-09T11:50:30.479Z,5.07
2023-05-09T11:52:58.809Z,6.28
2023-05-09T11:55:30.330Z,7.07
2023-05-09T11:57:59.188Z,7.03
2023-05-09T12:00:27.130Z,8.30
2023-05-09T12:02:55.144Z,5.47
2023-05-09T12:05:23.916Z,4.60
2023-05-09T12:07:52.882Z,4.75
2023-05-09T12:10:23.157Z,9.38
2023-05-09T12:12:53.179Z,8.75
2023-05-09T12:15:22.208Z,13.23
2023-05-09T12:18:04.897Z,19.55
2023-05-09T12:20:48.692Z,25.75
2023-05-09T12:23:17.043Z,28.10
2023-05-09T12:25:57.906Z,19.17
2023-05-09T12:28:26.748Z,16.48
2023-05-09T12:30:55.292Z,13.05
2023-05-09T12:33:23.926Z,10.40
2023-05-09T12:36:12.637Z,8.93
2023-05-09T12:38:40.921Z,9.63
2023-05-09T12:41:18.817Z,8.68
2023-05-09T12:43:57.999Z,8.65
2023-05-09T12:46:26.040Z,11.27
2023-05-09T12:48:54.506Z,23.30
2023-05-09T12:51:23.008Z,31.77
2023-05-09T12:53:51.443Z,18.98
2023-05-09T12:56:23.559Z,38.28
2023-05-09T12:58:53.956Z,46.72
2023-05-09T13:01:27.744Z,45.17
2023-05-09T13:04:04.206Z,44.60
2023-05-09T13:06:36.086Z,32.80
2023-05-09T13:09:06.517Z,24.52
2023-05-09T13:11:35.548Z,25.50
2023-05-09T13:14:04.349Z,21.00
2023-05-09T13:16:32.508Z,9.73
2023-05-09T13:19:01.720Z,12.63
2023-05-09T13:21:29.984Z,6.68
2023-05-09T13:23:57.834Z,6.18
2023-05-09T13:26:27.464Z,5.38
2023-05-09T13:28:56.210Z,5.53
2023-05-09T13:31:24.511Z,6.68
2023-05-09T13:33:52.589Z,5.22
2023-05-09T13:36:23.497Z,7.40
2023-05-09T13:38:51.335Z,5.55
2023-05-09T13:41:24.098Z,7.45
2023-05-09T13:43:51.933Z,7.13
2023-05-09T13:46:19.736Z,4.75
2023-05-09T13:48:47.964Z,6.47
2023-05-09T13:51:15.735Z,3.67
2023-05-09T13:53:43.569Z,9.35
2023-05-09T13:56:11.871Z,5.03
2023-05-09T13:58:39.665Z,5.57
2023-05-09T14:01:07.842Z,5.00
2023-05-09T14:03:36.011Z,5.22
2023-05-09T14:06:04.502Z,8.75
2023-05-09T14:08:32.482Z,7.03
2023-05-09T14:11:00.375Z,5.18
2023-05-09T14:13:28.566Z,5.45
2023-05-09T14:15:56.324Z,5.95
2023-05-09T14:18:24.073Z,8.00
2023-05-09T14:20:51.850Z,4.68
2023-05-09T14:23:19.575Z,5.20
2023-05-09T14:25:47.258Z,6.82
2023-05-09T14:28:15.045Z,4.47
2023-05-09T14:30:42.766Z,4.32
2023-05-09T14:33:10.733Z,4.18
2023-05-09T14:35:41.071Z,5.15
2023-05-09T14:38:09.428Z,4.10
2023-05-09T14:40:37.733Z,8.52
2023-05-09T14:43:06.173Z,3.75
2023-05-09T14:45:34.035Z,4.07
2023-05-09T14:48:05.890Z,6.20
2023-05-09T14:50:33.880Z,8.32
2023-05-09T14:53:02.191Z,7.82
2023-05-09T14:55:31.381Z,6.40
2023-05-09T14:57:59.468Z,6.30
2023-05-09T15:00:28.783Z,5.22
2023-05-09T15:02:57.300Z,6.85
2023-05-09T15:05:25.366Z,8.02
2023-05-09T15:07:53.117Z,5.88
2023-05-09T15:10:21.147Z,5.32
2023-05-09T15:12:51.766Z,4.80
2023-05-09T15:15:21.314Z,6.07
2023-05-09T15:17:49.418Z,7.60
2023-05-09T15:20:18.403Z,7.40
2023-05-09T15:22:50.438Z,6.32
2023-05-09T15:25:18.614Z,7.15
2023-05-09T15:27:46.554Z,2.80
2023-05-09T15:30:14.733Z,3.13
2023-05-09T15:32:42.847Z,6.60
2023-05-09T15:35:10.652Z,4.18
2023-05-09T15:37:38.732Z,5.10
2023-05-09T15:40:08.107Z,7.72
2023-05-09T15:42:38.820Z,5.03
2023-05-09T15:45:07.299Z,6.10
2023-05-09T15:47:35.092Z,5.18
2023-05-09T15:50:03.354Z,6.50
2023-05-09T15:52:31.534Z,7.07
2023-05-09T15:54:59.851Z,3.67
2023-05-09T15:57:28.132Z,4.72
2023-05-09T15:59:56.238Z,9.10
2023-05-09T16:02:24.318Z,12.30
2023-05-09T16:04:52.312Z,11.63
2023-05-09T16:07:20.938Z,7.85
2023-05-09T16:09:48.887Z,7.72
2023-05-09T16:12:16.674Z,8.57
2023-05-09T16:14:44.395Z,6.07
2023-05-09T16:17:12.794Z,11.18
2023-05-09T16:19:40.974Z,6.32
2023-05-09T16:22:08.937Z,6.97
2023-05-09T16:24:37.693Z,7.70
2023-05-09T16:27:05.468Z,12.18
2023-05-09T16:29:33.322Z,8.98
2023-05-09T16:32:01.515Z,9.63
2023-05-09T16:34:29.625Z,9.18
2023-05-09T16:36:57.528Z,11.90
2023-05-09T16:39:28.054Z,11.98
2023-05-09T16:41:56.468Z,9.50
2023-05-09T16:44:26.046Z,10.52
2023-05-09T16:46:53.868Z,14.80
2023-05-09T16:49:21.624Z,13.80
2023-05-09T16:51:49.575Z,12.35
2023-05-09T16:54:17.412Z,12.07
2023-05-09T16:56:45.142Z,8.98
2023-05-09T16:59:13.406Z,9.77
2023-05-09T17:01:42.728Z,9.57
2023-05-09T17:04:10.456Z,10.07
2023-05-09T17:06:38.376Z,13.23
2023-05-09T17:09:06.444Z,12.60
2023-05-09T17:11:34.264Z,9.52
2023-05-09T17:14:03.579Z,12.30
2023-05-09T17:16:31.502Z,11.50
2023-05-09T17:18:59.397Z,9.05
2023-05-09T17:21:27.243Z,13.07
2023-05-09T17:23:56.925Z,12.00
2023-05-09T17:26:26.050Z,9.48
2023-05-09T17:28:53.882Z,10.88
2023-05-09T17:31:22.045Z,13.05
2023-05-09T17:33:50.082Z,11.40
2023-05-09T17:36:18.003Z,11.98
2023-05-09T17:38:46.466Z,15.25
2023-05-09T17:41:14.465Z,13.18
2023-05-09T17:43:43.183Z,12.10
2023-05-09T17:46:11.190Z,11.50
2023-05-09T17:48:39.039Z,10.57
2023-05-09T17:51:07.254Z,10.50
2023-05-09T17:53:35.116Z,10.70
2023-05-09T17:56:05.342Z,11.25
2023-05-09T17:58:33.101Z,10.27
2023-05-09T18:01:01.279Z,10.93
2023-05-09T18:03:29.172Z,8.90
2023-05-09T18:05:57.330Z,11.57
2023-05-09T18:08:25.092Z,8.18
2023-05-09T18:10:54.920Z,11.07
2023-05-09T18:13:23.276Z,9.38
2023-05-09T18:15:51.266Z,12.50
2023-05-09T18:18:19.175Z,13.95
2023-05-09T18:20:47.632Z,11.70
2023-05-09T18:23:16.186Z,11.98
2023-05-09T18:25:44.031Z,12.73
2023-05-09T18:28:11.868Z,9.68
2023-05-09T18:30:39.766Z,9.95
2023-05-09T18:33:08.482Z,8.88
2023-05-09T18:35:36.411Z,10.60
2023-05-09T18:38:04.362Z,9.88
2023-05-09T18:40:32.976Z,7.53
2023-05-09T18:43:00.834Z,8.43
2023-05-09T18:45:29.310Z,8.68
2023-05-09T18:47:57.248Z,10.45
2023-05-09T18:50:25.187Z,5.53
2023-05-09T18:52:53.125Z,8.75
2023-05-09T18:55:22.197Z,5.88
2023-05-09T18:57:50.027Z,4.68
2023-05-09T19:00:18.284Z,4.85
2023-05-09T19:02:46.169Z,5.63
2023-05-09T19:05:13.816Z,6.50
2023-05-09T19:07:41.671Z,7.22
2023-05-09T19:10:09.933Z,5.50
2023-05-09T19:12:38.024Z,6.00
2023-05-09T19:15:06.353Z,8.82
2023-05-09T19:17:34.372Z,14.10
2023-05-09T19:20:02.715Z,25.02
2023-05-09T19:22:31.622Z,20.00
2023-05-09T19:24:59.381Z,16.98
2023-05-09T19:27:27.344Z,15.02
2023-05-09T19:29:55.115Z,8.63
2023-05-09T19:32:23.068Z,8.80
2023-05-09T19:34:51.001Z,6.93
2023-05-09T19:37:18.772Z,6.38
2023-05-09T19:39:46.681Z,7.85
2023-05-09T19:42:15.134Z,8.70
2023-05-09T19:44:43.052Z,8.18
2023-05-09T19:47:11.447Z,9.27
2023-05-09T19:49:40.497Z,6.40
2023-05-09T19:52:08.192Z,6.82
2023-05-09T19:54:35.954Z,7.63
2023-05-09T19:57:06.603Z,5.55
2023-05-09T19:59:34.680Z,7.00
2023-05-09T20:02:07.617Z,4.75
2023-05-09T20:04:36.841Z,6.18
2023-05-09T20:07:07.433Z,4.45
2023-05-09T20:09:35.720Z,4.85
2023-05-09T20:12:03.997Z,14.63
2023-05-09T20:14:32.292Z,10.07
2023-05-09T20:17:00.148Z,8.88
2023-05-09T20:19:28.260Z,8.02
2023-05-09T20:21:56.357Z,4.95
2023-05-09T20:24:24.357Z,8.52
2023-05-09T20:26:53.843Z,8.23
2023-05-09T20:29:21.786Z,7.22
2023-05-09T20:31:49.850Z,5.13
2023-05-09T20:34:18.210Z,6.85
2023-05-09T20:36:48.797Z,9.93
2023-05-09T20:39:17.961Z,9.25
2023-05-09T20:41:47.228Z,7.30
2023-05-09T20:44:16.312Z,7.35
2023-05-09T20:46:45.330Z,10.57
2023-05-09T20:49:13.591Z,10.07
2023-05-09T20:51:42.773Z,10.38
2023-05-09T20:54:12.856Z,6.57
2023-05-09T20:56:40.908Z,6.32
2023-05-09T20:59:08.979Z,7.18
2023-05-09T21:01:40.038Z,6.57
2023-05-09T21:04:08.571Z,7.55
2023-05-09T21:06:37.588Z,5.32
2023-05-09T21:09:06.752Z,5.63
2023-05-09T21:11:40.230Z,7.10
2023-05-09T21:14:09.976Z,5.25
2023-05-09T21:16:39.339Z,6.82
2023-05-09T21:19:09.029Z,5.20
2023-05-09T21:21:36.989Z,4.72
2023-05-09T21:24:09.510Z,4.93
2023-05-09T21:26:37.553Z,3.70
2023-05-09T21:29:05.687Z,4.55
2023-05-09T21:31:34.654Z,4.38
2023-05-09T21:34:02.701Z,3.97
2023-05-09T21:36:31.599Z,4.28
2023-05-09T21:38:59.521Z,3.53
2023-05-09T21:41:28.096Z,3.40
2023-05-09T21:43:56.241Z,3.35
2023-05-09T21:46:25.193Z,4.70
2023-05-09T21:48:53.583Z,3.42
2023-05-09T21:51:22.020Z,5.15
2023-05-09T21:53:49.879Z,4.15
2023-05-09T21:56:19.286Z,3.50
2023-05-09T21:58:47.182Z,5.85
2023-05-09T22:01:18.098Z,5.43
2023-05-09T22:03:46.318Z,4.70
2023-05-09T22:06:14.134Z,3.95
2023-05-09T22:08:42.013Z,4.90
2023-05-09T22:11:10.941Z,3.40
2023-05-09T22:13:39.939Z,4.40
2023-05-09T22:16:08.010Z,3.50
2023-05-09T22:18:35.929Z,4.63
2023-05-09T22:21:04.191Z,3.00
2023-05-09T22:23:34.613Z,5.97
2023-05-09T22:26:02.491Z,3.75
2023-05-09T22:28:30.743Z,2.65
2023-05-09T22:30:58.643Z,3.72
2023-05-09T22:33:29.374Z,3.95
2023-05-09T22:35:58.907Z,2.97
2023-05-09T22:38:26.883Z,7.32
2023-05-09T22:40:55.050Z,3.17
2023-05-09T22:43:25.387Z,4.65
2023-05-09T22:45:56.828Z,4.28
2023-05-09T22:48:25.112Z,4.10
2023-05-09T22:50:55.799Z,4.32
2023-05-09T22:53:24.230Z,3.17
2023-05-09T22:55:55.140Z,4.07
2023-05-09T22:58:23.365Z,3.10
2023-05-09T23:00:51.499Z,4.05
2023-05-09T23:03:23.393Z,3.10
2023-05-09T23:05:52.702Z,2.92
2023-05-09T23:08:23.734Z,3.40
2023-05-09T23:10:54.292Z,4.13
2023-05-09T23:13:23.870Z,2.33
2023-05-09T23:15:52.446Z,3.03
2023-05-09T23:18:23.163Z,3.22
2023-05-09T23:20:51.258Z,3.60
2023-05-09T23:23:19.349Z,3.90
2023-05-09T23:25:47.513Z,3.28
2023-05-09T23:28:17.007Z,5.72
2023-05-09T23:30:45.324Z,2.85
2023-05-09T23:33:16.621Z,3.20
2023-05-09T23:35:51.098Z,3.35
2023-05-09T23:38:20.104Z,2.75
2023-05-09T23:40:48.433Z,2.63
2023-05-09T23:43:21.067Z,3.45
2023-05-09T23:45:49.794Z,2.30
2023-05-09T23:48:18.103Z,3.63
2023-05-09T23:50:46.436Z,3.28
2023-05-09T23:53:15.269Z,2.47
2023-05-09T23:55:43.771Z,2.60
2023-05-09T23:58:12.890Z,2.78
